createdAt,value
2019-05-01T00:02:21.269Z,117.66
2019-05-01T00:05:30.804Z,117.62
2019-05-01T00:08:36.021Z,117.60
2019-05-01T00:11:42.472Z,117.50
2019-05-01T00:14:49.703Z,117.12
2019-05-01T00:17:55.095Z,117.63
2019-05-01T00:21:00.632Z,117.74
2019-05-01T00:24:07.956Z,117.73
2019-05-01T00:27:12.964Z,118.07
2019-05-01T00:30:29.776Z,117.71
2019-05-01T00:33:29.702Z,117.84
2019-05-01T00:36:34.968Z,117.79
2019-05-01T00:39:40.186Z,117.78
2019-05-01T00:42:45.427Z,117.99
2019-05-01T00:45:50.733Z,118.23
2019-05-01T00:48:58.257Z,118.63
2019-05-01T00:52:03.384Z,118.31
2019-05-01T00:55:26.275Z,118.60
2019-05-01T00:58:39.533Z,118.10
2019-05-01T01:02:07.511Z,117.84
2019-05-01T01:05:12.891Z,118.42
2019-05-01T01:08:18.021Z,118.47
2019-05-01T01:11:24.837Z,118.75
2019-05-01T01:14:31.063Z,118.79
2019-05-01T01:17:36.174Z,118.60
2019-05-01T01:20:41.379Z,118.57
2019-05-01T01:23:46.628Z,118.47
2019-05-01T01:26:51.751Z,118.55
2019-05-01T01:29:57.167Z,118.86
2019-05-01T01:33:02.364Z,118.58
2019-05-01T01:36:07.591Z,118.70
2019-05-01T01:39:12.748Z,118.55
2019-05-01T01:42:18.135Z,118.69
2019-05-01T01:45:33.880Z,118.52
2019-05-01T01:48:39.225Z,118.45
2019-05-01T01:51:44.600Z,118.10
2019-05-01T01:54:49.946Z,117.61
2019-05-01T01:57:55.661Z,117.33
2019-05-01T02:01:10.807Z,117.14
2019-05-01T02:04:46.961Z,117.33
2019-05-01T02:07:52.593Z,117.35
2019-05-01T02:10:58.941Z,117.36
2019-05-01T02:14:04.116Z,117.59
2019-05-01T02:17:09.247Z,117.58
2019-05-01T02:20:16.522Z,117.17
2019-05-01T02:23:21.796Z,117.31
2019-05-01T02:26:31.123Z,116.55
2019-05-01T02:29:42.360Z,115.76
2019-05-01T02:32:48.294Z,115.43
2019-05-01T02:35:53.662Z,115.65
2019-05-01T02:38:59.961Z,116.14
2019-05-01T02:42:06.762Z,116.18
2019-05-01T02:45:12.031Z,116.30
2019-05-01T02:48:22.991Z,116.05
2019-05-01T02:51:28.808Z,116.36
2019-05-01T02:54:36.241Z,115.95
2019-05-01T02:57:42.926Z,115.31
2019-05-01T03:00:48.327Z,115.56
2019-05-01T03:03:55.948Z,115.49
2019-05-01T03:07:02.783Z,115.21
2019-05-01T03:10:10.152Z,115.81
2019-05-01T03:13:15.614Z,115.90
2019-05-01T03:16:22.442Z,115.73
2019-05-01T03:19:45.972Z,115.75
2019-05-01T03:23:10.795Z,115.93
2019-05-01T03:26:16.730Z,116.11
2019-05-01T03:29:22.330Z,116.23
2019-05-01T03:32:27.904Z,116.47
2019-05-01T03:35:33.257Z,116.49
2019-05-01T03:38:38.783Z,116.47
2019-05-01T03:41:44.147Z,115.97
2019-05-01T03:44:49.498Z,116.23
2019-05-01T03:47:56.176Z,116.50
2019-05-01T03:51:01.951Z,116.91
2019-05-01T03:54:08.388Z,116.49
2019-05-01T03:57:14.120Z,116.47
2019-05-01T04:00:25.854Z,116.07
2019-05-01T04:03:35.409Z,115.88
2019-05-01T04:06:40.847Z,115.92
2019-05-01T04:09:46.031Z,115.77
2019-05-01T04:12:51.572Z,115.62
2019-05-01T04:15:57.338Z,115.60
2019-05-01T04:19:06.771Z,115.63
2019-05-01T04:22:13.879Z,115.52
2019-05-01T04:25:21.036Z,115.30
2019-05-01T04:28:43.078Z,115.63
2019-05-01T04:32:01.186Z,115.35
2019-05-01T04:35:26.401Z,115.50
2019-05-01T04:38:31.639Z,115.33
2019-05-01T04:41:37.282Z,114.78
2019-05-01T04:44:45.519Z,114.49
2019-05-01T04:47:51.055Z,114.53
2019-05-01T04:50:56.871Z,114.52
2019-05-01T04:54:03.235Z,114.29
2019-05-01T04:57:08.579Z,113.98
2019-05-01T05:00:13.995Z,113.99
2019-05-01T05:03:21.017Z,113.03
2019-05-01T05:06:26.742Z,113.00
2019-05-01T05:09:46.187Z,112.82
2019-05-01T05:13:06.706Z,111.98
2019-05-01T05:16:29.671Z,111.50
2019-05-01T05:19:34.844Z,110.77
2019-05-01T05:22:40.112Z,111.14
2019-05-01T05:25:45.579Z,110.49
2019-05-01T05:28:54.336Z,110.41
2019-05-01T05:32:02.946Z,110.87
2019-05-01T05:35:09.734Z,109.96
2019-05-01T05:38:35.609Z,110.09
2019-05-01T05:41:42.830Z,109.73
2019-05-01T05:44:49.016Z,109.54
2019-05-01T05:47:54.260Z,109.72
2019-05-01T05:51:26.195Z,109.83
2019-05-01T05:55:02.956Z,109.70
2019-05-01T05:58:34.765Z,109.31
2019-05-01T06:02:11.011Z,110.13
2019-05-01T06:05:28.935Z,110.47
2019-05-01T06:08:37.171Z,109.92
2019-05-01T06:12:13.881Z,109.67
2019-05-01T06:15:42.771Z,109.86
2019-05-01T06:19:09.667Z,110.05
2019-05-01T06:22:35.645Z,109.07
2019-05-01T06:25:43.504Z,108.35
2019-05-01T06:28:48.770Z,108.02
2019-05-01T06:31:58.779Z,106.29
2019-05-01T06:35:03.172Z,105.06
2019-05-01T06:38:13.939Z,105.63
2019-05-01T06:41:21.761Z,105.54
2019-05-01T06:44:44.081Z,104.48
2019-05-01T06:47:55.965Z,104.13
2019-05-01T06:51:20.140Z,102.43
2019-05-01T06:54:27.924Z,99.50
2019-05-01T06:57:33.470Z,95.96
2019-05-01T07:00:43.185Z,92.77
2019-05-01T07:04:02.951Z,92.18
2019-05-01T07:06:55.045Z,93.67
2019-05-01T07:10:01.316Z,89.14
2019-05-01T07:13:06.899Z,89.10
2019-05-01T07:16:12.190Z,87.80
2019-05-01T07:19:19.588Z,87.86
2019-05-01T07:22:25.048Z,84.20
2019-05-01T07:25:30.341Z,83.69
2019-05-01T07:28:36.668Z,83.44
2019-05-01T07:31:43.166Z,84.69
2019-05-01T07:34:48.999Z,81.25
2019-05-01T07:37:57.589Z,82.34
2019-05-01T07:41:03.469Z,80.93
2019-05-01T07:44:35.060Z,82.89
2019-05-01T07:47:41.830Z,82.67
2019-05-01T07:50:47.003Z,84.75
2019-05-01T07:53:52.790Z,82.60
2019-05-01T07:56:58.801Z,81.34
2019-05-01T08:00:08.598Z,80.26
2019-05-01T08:03:13.974Z,80.42
2019-05-01T08:06:21.772Z,80.73
2019-05-01T08:09:26.035Z,80.64
2019-05-01T08:12:31.399Z,82.67
2019-05-01T08:15:38.274Z,77.97
2019-05-01T08:18:58.990Z,78.25
2019-05-01T08:22:26.248Z,80.99
2019-05-01T08:25:33.247Z,80.41
2019-05-01T08:28:57.959Z,78.99
2019-05-01T08:32:11.438Z,80.10
2019-05-01T08:35:18.136Z,79.53
2019-05-01T08:38:23.348Z,78.24
2019-05-01T08:41:31.851Z,80.13
2019-05-01T08:44:51.633Z,78.72
2019-05-01T08:48:14.835Z,80.02
2019-05-01T08:51:20.094Z,78.95
2019-05-01T08:54:28.932Z,82.57
2019-05-01T08:57:34.485Z,79.41
2019-05-01T09:00:41.235Z,80.09
2019-05-01T09:03:49.741Z,80.88
2019-05-01T09:06:54.811Z,78.16
2019-05-01T09:10:00.241Z,80.05
2019-05-01T09:13:07.272Z,79.35
2019-05-01T09:16:12.548Z,76.70
2019-05-01T09:19:17.814Z,77.84
2019-05-01T09:22:24.323Z,81.32
2019-05-01T09:25:39.716Z,80.35
2019-05-01T09:28:51.808Z,81.08
2019-05-01T09:31:58.005Z,79.72
2019-05-01T09:35:15.115Z,78.93
2019-05-01T09:38:10.150Z,81.02
2019-05-01T09:41:15.355Z,79.16
2019-05-01T09:44:20.597Z,76.79
2019-05-01T09:47:26.640Z,78.70
2019-05-01T09:50:35.835Z,77.22
2019-05-01T09:53:47.955Z,78.34
2019-05-01T09:56:53.319Z,80.36
2019-05-01T09:59:58.563Z,79.29
2019-05-01T10:03:04.811Z,80.34
2019-05-01T10:06:12.746Z,80.74
2019-05-01T10:09:18.106Z,77.93
2019-05-01T10:12:23.352Z,79.51
2019-05-01T10:15:28.866Z,79.19
2019-05-01T10:18:35.245Z,79.59
2019-05-01T10:21:40.680Z,80.68
2019-05-01T10:24:48.277Z,81.51
2019-05-01T10:28:02.173Z,80.23
2019-05-01T10:31:14.937Z,78.24
2019-05-01T10:34:43.086Z,78.28
2019-05-01T10:37:49.047Z,78.98
2019-05-01T10:40:54.511Z,77.79
2019-05-01T10:43:59.764Z,77.96
2019-05-01T10:47:06.345Z,77.03
2019-05-01T10:50:11.740Z,80.26
2019-05-01T10:53:17.020Z,77.63
2019-05-01T10:56:22.214Z,77.35
2019-05-01T10:59:27.450Z,77.14
2019-05-01T11:02:32.699Z,78.76
2019-05-01T11:05:37.990Z,81.62
2019-05-01T11:08:43.264Z,80.25
2019-05-01T11:11:48.537Z,81.00
2019-05-01T11:14:54.026Z,79.50
2019-05-01T11:17:59.930Z,78.71
2019-05-01T11:21:05.453Z,79.00
2019-05-01T11:24:10.815Z,79.12
2019-05-01T11:27:17.815Z,77.39
2019-05-01T11:30:25.515Z,77.50
2019-05-01T11:34:04.970Z,78.35
2019-05-01T11:37:35.238Z,79.48
2019-05-01T11:40:53.128Z,80.30
2019-05-01T11:43:59.592Z,77.77
2019-05-01T11:47:04.789Z,79.64
2019-05-01T11:50:10.220Z,77.52
2019-05-01T11:53:15.459Z,77.48
2019-05-01T11:56:20.740Z,76.01
2019-05-01T11:59:26.014Z,75.33
2019-05-01T12:02:31.229Z,76.76
2019-05-01T12:05:37.243Z,76.61
2019-05-01T12:08:42.752Z,69.39
2019-05-01T12:11:50.155Z,72.58
2019-05-01T12:14:55.508Z,71.50
2019-05-01T12:18:01.739Z,71.56
2019-05-01T12:21:07.020Z,73.10
2019-05-01T12:24:12.218Z,72.90
2019-05-01T12:27:17.648Z,73.32
2019-05-01T12:30:23.449Z,71.24
2019-05-01T12:33:28.789Z,66.99
2019-05-01T12:36:36.531Z,66.54
2019-05-01T12:39:41.859Z,66.71
2019-05-01T12:42:48.823Z,63.38
2019-05-01T12:45:55.111Z,64.51
2019-05-01T12:49:04.538Z,65.82
2019-05-01T12:52:15.399Z,62.26
2019-05-01T12:55:40.167Z,63.89
2019-05-01T12:58:50.519Z,62.44
2019-05-01T13:01:55.838Z,63.28
2019-05-01T13:05:01.033Z,68.35
2019-05-01T13:08:07.824Z,64.03
2019-05-01T13:11:12.971Z,66.75
2019-05-01T13:14:18.212Z,63.48
2019-05-01T13:17:24.711Z,64.58
2019-05-01T13:20:29.926Z,62.52
2019-05-01T13:23:35.203Z,63.93
2019-05-01T13:26:48.834Z,61.47
2019-05-01T13:30:04.985Z,62.43
2019-05-01T13:33:46.096Z,62.82
2019-05-01T13:37:02.322Z,61.83
2019-05-01T13:40:17.661Z,64.87
2019-05-01T13:43:25.302Z,65.05
2019-05-01T13:46:30.568Z,62.34
2019-05-01T13:49:35.722Z,64.80
2019-05-01T13:52:40.898Z,65.43
2019-05-01T13:55:46.258Z,62.10
2019-05-01T13:58:51.459Z,63.27
2019-05-01T14:01:56.637Z,63.46
2019-05-01T14:05:01.798Z,64.41
2019-05-01T14:08:08.312Z,63.71
2019-05-01T14:11:13.556Z,66.32
2019-05-01T14:14:19.942Z,65.39
2019-05-01T14:17:25.097Z,65.19
2019-05-01T14:20:41.206Z,66.15
2019-05-01T14:24:11.266Z,66.80
2019-05-01T14:27:17.552Z,68.46
2019-05-01T14:30:22.813Z,67.41
2019-05-01T14:33:28.042Z,64.87
2019-05-01T14:36:34.842Z,66.82
2019-05-01T14:39:40.043Z,67.49
2019-05-01T14:42:45.271Z,65.98
2019-05-01T14:45:50.574Z,65.40
2019-05-01T14:48:57.639Z,63.97
2019-05-01T14:52:02.857Z,66.48
2019-05-01T14:55:08.434Z,65.56
2019-05-01T14:58:13.673Z,63.18
2019-05-01T15:01:18.877Z,63.13
2019-05-01T15:04:24.076Z,63.84
2019-05-01T15:07:42.140Z,65.06
2019-05-01T15:10:36.361Z,63.22
2019-05-01T15:14:05.521Z,62.65
2019-05-01T15:17:17.811Z,62.16
2019-05-01T15:20:23.102Z,64.71
2019-05-01T15:23:28.295Z,64.09
2019-05-01T15:26:33.435Z,62.22
2019-05-01T15:29:38.662Z,63.39
2019-05-01T15:32:43.861Z,61.80
2019-05-01T15:35:49.418Z,64.10
2019-05-01T15:38:56.085Z,60.99
2019-05-01T15:42:35.331Z,62.44
2019-05-01T15:45:40.647Z,63.67
2019-05-01T15:48:46.542Z,65.93
2019-05-01T15:51:52.031Z,64.24
2019-05-01T15:55:00.182Z,63.13
2019-05-01T15:58:11.117Z,64.98
2019-05-01T16:01:20.038Z,64.48
2019-05-01T16:04:27.571Z,62.51
2019-05-01T16:07:35.707Z,64.70
2019-05-01T16:10:54.000Z,66.61
2019-05-01T16:14:02.451Z,68.34
2019-05-01T16:17:10.898Z,66.54
2019-05-01T16:20:19.146Z,66.42
2019-05-01T16:23:29.236Z,63.55
2019-05-01T16:26:34.265Z,63.60
2019-05-01T16:29:42.155Z,65.44
2019-05-01T16:32:49.842Z,65.57
2019-05-01T16:35:56.677Z,66.34
2019-05-01T16:39:39.747Z,66.48
2019-05-01T16:42:46.965Z,67.11
2019-05-01T16:45:52.251Z,66.10
2019-05-01T16:49:01.743Z,68.11
2019-05-01T16:52:10.095Z,69.74
2019-05-01T16:55:16.136Z,70.44
2019-05-01T16:58:24.082Z,72.34
2019-05-01T17:01:38.543Z,73.64
2019-05-01T17:04:49.763Z,73.26
2019-05-01T17:08:35.520Z,76.34
2019-05-01T17:11:33.710Z,74.91
2019-05-01T17:14:40.807Z,75.52
2019-05-01T17:17:46.281Z,76.32
2019-05-01T17:20:53.740Z,77.03
2019-05-01T17:24:00.576Z,77.61
2019-05-01T17:27:09.208Z,77.16
2019-05-01T17:30:18.023Z,77.19
2019-05-01T17:33:24.677Z,79.35
2019-05-01T17:36:30.055Z,79.34
2019-05-01T17:39:36.867Z,79.78
2019-05-01T17:42:43.795Z,81.05
2019-05-01T17:45:49.051Z,81.51
2019-05-01T17:48:54.326Z,81.72
2019-05-01T17:52:01.316Z,82.31
2019-05-01T17:55:07.381Z,82.83
2019-05-01T17:58:12.581Z,84.45
2019-05-01T18:01:45.952Z,83.38
2019-05-01T18:05:09.915Z,83.81
2019-05-01T18:08:15.531Z,83.88
2019-05-01T18:11:20.810Z,84.50
2019-05-01T18:14:26.121Z,84.75
2019-05-01T18:17:31.397Z,86.32
2019-05-01T18:20:39.600Z,87.36
2019-05-01T18:24:18.869Z,86.84
2019-05-01T18:27:42.455Z,88.49
2019-05-01T18:30:51.680Z,89.07
2019-05-01T18:33:57.012Z,89.70
2019-05-01T18:37:09.670Z,91.10
2019-05-01T18:40:22.589Z,93.10
2019-05-01T18:43:32.067Z,93.25
2019-05-01T18:46:35.002Z,94.27
2019-05-01T18:49:40.192Z,96.12
2019-05-01T18:52:45.364Z,95.73
2019-05-01T18:55:50.628Z,95.46
2019-05-01T18:58:58.449Z,95.18
2019-05-01T19:02:04.037Z,95.76
2019-05-01T19:05:11.325Z,94.65
2019-05-01T19:08:17.919Z,94.96
2019-05-01T19:11:28.151Z,95.15
2019-05-01T19:14:42.404Z,95.79
2019-05-01T19:17:52.542Z,96.19
2019-05-01T19:21:00.046Z,97.18
2019-05-01T19:24:06.578Z,96.70
2019-05-01T19:27:14.209Z,96.38
2019-05-01T19:30:20.339Z,95.67
2019-05-01T19:33:26.625Z,96.83
2019-05-01T19:36:34.828Z,96.95
2019-05-01T19:39:44.459Z,97.98
2019-05-01T19:42:53.715Z,97.47
2019-05-01T19:46:01.422Z,98.66
2019-05-01T19:49:14.290Z,99.42
2019-05-01T19:52:20.851Z,100.02
2019-05-01T19:55:29.858Z,100.43
2019-05-01T19:58:37.780Z,100.82
2019-05-01T20:01:49.136Z,101.30
2019-05-01T20:04:52.941Z,101.99
2019-05-01T20:08:00.784Z,103.27
2019-05-01T20:11:11.115Z,104.36
2019-05-01T20:14:18.011Z,102.90
2019-05-01T20:17:28.611Z,103.70
2019-05-01T20:20:34.949Z,102.72
2019-05-01T20:23:42.070Z,102.85
2019-05-01T20:26:48.705Z,102.90
2019-05-01T20:29:56.586Z,102.14
2019-05-01T20:33:03.742Z,102.53
2019-05-01T20:36:10.340Z,103.18
2019-05-01T20:39:15.704Z,102.12
2019-05-01T20:42:21.673Z,103.49
2019-05-01T20:45:27.920Z,104.00
2019-05-01T20:48:33.103Z,104.26
2019-05-01T20:51:38.288Z,105.57
2019-05-01T20:54:43.502Z,106.35
2019-05-01T20:57:49.283Z,106.34
2019-05-01T21:00:58.957Z,106.34
2019-05-01T21:04:22.161Z,106.69
2019-05-01T21:07:31.173Z,107.39
2019-05-01T21:10:50.500Z,107.84
2019-05-01T21:13:56.635Z,107.82
2019-05-01T21:17:01.391Z,107.71
2019-05-01T21:20:06.793Z,108.60
2019-05-01T21:23:14.166Z,109.92
2019-05-01T21:26:18.984Z,110.64
2019-05-01T21:29:24.249Z,110.41
2019-05-01T21:32:29.470Z,110.75
2019-05-01T21:35:34.709Z,110.74
2019-05-01T21:38:39.909Z,111.85
2019-05-01T21:41:45.194Z,111.92
2019-05-01T21:44:50.365Z,111.98
2019-05-01T21:47:55.598Z,112.38
2019-05-01T21:51:03.315Z,113.25
2019-05-01T21:54:08.752Z,114.07
2019-05-01T21:57:17.447Z,114.55
2019-05-01T22:00:24.870Z,115.51
2019-05-01T22:03:30.318Z,116.32
2019-05-01T22:06:35.489Z,116.26
2019-05-01T22:09:41.148Z,116.49
2019-05-01T22:12:48.991Z,116.38
2019-05-01T22:15:59.042Z,115.75
2019-05-01T22:19:18.693Z,115.18
2019-05-01T22:22:33.111Z,115.92
2019-05-01T22:25:42.164Z,116.04
2019-05-01T22:28:54.924Z,116.75
2019-05-01T22:32:27.595Z,116.38
2019-05-01T22:35:36.434Z,117.00
2019-05-01T22:38:41.648Z,116.56
2019-05-01T22:41:46.850Z,116.71
2019-05-01T22:44:53.106Z,117.39
2019-05-01T22:47:58.313Z,117.25
2019-05-01T22:51:19.055Z,116.81
2019-05-01T22:54:25.398Z,115.96
2019-05-01T22:57:30.551Z,115.57
2019-05-01T23:00:46.913Z,114.69
2019-05-01T23:04:00.482Z,113.98
2019-05-01T23:07:05.713Z,112.72
2019-05-01T23:10:11.329Z,112.33
2019-05-01T23:13:16.488Z,111.82
2019-05-01T23:16:23.293Z,111.37
2019-05-01T23:19:29.621Z,111.86
2019-05-01T23:22:34.900Z,111.63
2019-05-01T23:25:41.151Z,111.09
2019-05-01T23:28:47.075Z,111.07
2019-05-01T23:31:52.269Z,110.91
2019-05-01T23:34:57.525Z,111.44
2019-05-01T23:38:02.717Z,110.52
2019-05-01T23:41:09.034Z,110.11
2019-05-01T23:44:14.308Z,109.89
2019-05-01T23:47:21.885Z,110.60
2019-05-01T23:50:27.042Z,111.32
2019-05-01T23:53:32.203Z,111.48
2019-05-01T23:56:37.350Z,111.79
2019-05-01T23:59:42.618Z,111.69
